createdAt,value
2023-01-17T00:01:53.871Z,93625.47
2023-01-17T00:04:39.980Z,93617.47
2023-01-17T00:07:29.502Z,93621.28
2023-01-17T00:09:58.877Z,93625.63
2023-01-17T00:12:31.135Z,93622.38
2023-01-17T00:15:00.786Z,93622.56
2023-01-17T00:17:30.687Z,93624.56
2023-01-17T00:20:19.258Z,93626.38
2023-01-17T00:23:05.961Z,93628.38
2023-01-17T00:25:55.845Z,93631.16
2023-01-17T00:28:25.252Z,93634.97
2023-01-17T00:30:52.859Z,93633.72
2023-01-17T00:33:21.780Z,93641.91
2023-01-17T00:35:48.993Z,93641.88
2023-01-17T00:38:18.119Z,93655.44
2023-01-17T00:40:46.591Z,93654.81
2023-01-17T00:43:33.912Z,93656.81
2023-01-17T00:46:21.582Z,93658.19
2023-01-17T00:49:07.444Z,93660.00
2023-01-17T00:51:54.376Z,93665.22
2023-01-17T00:54:40.392Z,93670.44
2023-01-17T00:57:27.012Z,93669.09
2023-01-17T01:00:12.607Z,93670.72
2023-01-17T01:03:00.343Z,93678.00
2023-01-17T01:05:48.422Z,93686.63
2023-01-17T01:08:36.248Z,93687.44
2023-01-17T01:11:24.699Z,93698.50
2023-01-17T01:14:10.958Z,93699.66
2023-01-17T01:16:56.955Z,93718.94
2023-01-17T01:19:44.445Z,93715.47
2023-01-17T01:22:30.332Z,93713.28
2023-01-17T01:25:16.392Z,93717.19
2023-01-17T01:28:02.275Z,93713.41
2023-01-17T01:30:48.235Z,93717.00
2023-01-17T01:33:21.375Z,93719.00
2023-01-17T01:35:52.532Z,93716.38
2023-01-17T01:38:22.742Z,93722.03
2023-01-17T01:40:54.185Z,93718.63
2023-01-17T01:43:45.401Z,93727.09
2023-01-17T01:46:17.892Z,93730.94
2023-01-17T01:48:51.280Z,93728.38
2023-01-17T01:51:26.833Z,93725.22
2023-01-17T01:54:00.796Z,93733.69
2023-01-17T01:56:30.506Z,93727.09
2023-01-17T01:59:03.919Z,93726.88
2023-01-17T02:01:32.791Z,93720.66
2023-01-17T02:04:01.326Z,93721.47
2023-01-17T02:06:36.201Z,93722.31
2023-01-17T02:09:08.208Z,93731.13
2023-01-17T02:11:38.310Z,93726.88
2023-01-17T02:14:06.935Z,93726.25
2023-01-17T02:16:48.628Z,93717.00
2023-01-17T02:19:43.776Z,93715.56
2023-01-17T02:22:37.384Z,93719.16
2023-01-17T02:25:24.699Z,93722.63
2023-01-17T02:28:13.958Z,93712.53
2023-01-17T02:30:49.319Z,93710.28
2023-01-17T02:33:26.271Z,93707.03
2023-01-17T02:36:07.186Z,93708.69
2023-01-17T02:38:44.978Z,93707.66
2023-01-17T02:41:20.239Z,93706.69
2023-01-17T02:43:51.477Z,93706.69
2023-01-17T02:46:21.419Z,93716.34
2023-01-17T02:48:50.841Z,93708.59
2023-01-17T02:51:40.928Z,93709.34
2023-01-17T02:54:46.337Z,93712.44
2023-01-17T02:57:39.799Z,93717.16
2023-01-17T03:00:17.221Z,93717.44
2023-01-17T03:02:56.226Z,93714.97
2023-01-17T03:05:30.476Z,93721.91
2023-01-17T03:07:59.643Z,93713.16
2023-01-17T03:10:28.747Z,93720.75
2023-01-17T03:13:00.894Z,93715.25
2023-01-17T03:15:29.799Z,93712.66
2023-01-17T03:18:03.079Z,93710.44
2023-01-17T03:20:31.411Z,93706.19
2023-01-17T03:22:59.805Z,93718.94
2023-01-17T03:25:28.350Z,93713.31
2023-01-17T03:27:56.987Z,93715.47
2023-01-17T03:30:25.620Z,93711.22
2023-01-17T03:32:53.995Z,93722.66
2023-01-17T03:35:31.137Z,93714.22
2023-01-17T03:37:59.624Z,93710.78
2023-01-17T03:40:28.082Z,93717.00
2023-01-17T03:42:56.626Z,93712.69
2023-01-17T03:45:24.940Z,93715.00
2023-01-17T03:47:53.859Z,93712.13
2023-01-17T03:50:22.181Z,93712.94
2023-01-17T03:52:52.194Z,93707.63
2023-01-17T03:55:20.777Z,93706.03
2023-01-17T03:57:49.106Z,93707.63
2023-01-17T04:00:18.174Z,93702.41
2023-01-17T04:02:46.508Z,93705.22
2023-01-17T04:05:15.183Z,93695.94
2023-01-17T04:07:44.355Z,93704.78
2023-01-17T04:10:14.115Z,93700.53
2023-01-17T04:12:42.683Z,93704.78
2023-01-17T04:15:11.837Z,93707.38
2023-01-17T04:17:40.648Z,93699.91
2023-01-17T04:20:15.256Z,93695.69
2023-01-17T04:22:44.440Z,93695.03
2023-01-17T04:25:14.399Z,93692.19
2023-01-17T04:27:42.742Z,93697.91
2023-01-17T04:30:12.556Z,93701.69
2023-01-17T04:32:40.965Z,93693.25
2023-01-17T04:35:10.009Z,93694.50
2023-01-17T04:37:38.724Z,93690.56
2023-01-17T04:40:08.283Z,93686.34
2023-01-17T04:42:38.522Z,93693.16
2023-01-17T04:45:08.274Z,93694.78
2023-01-17T04:47:36.628Z,93697.38
2023-01-17T04:50:05.423Z,93694.78
2023-01-17T04:52:33.787Z,93693.34
2023-01-17T04:55:02.214Z,93699.88
2023-01-17T04:57:34.224Z,93699.25
2023-01-17T05:00:04.442Z,93702.88
2023-01-17T05:02:36.784Z,93695.22
2023-01-17T05:05:05.523Z,93697.19
2023-01-17T05:07:35.768Z,93703.22
2023-01-17T05:10:04.704Z,93703.22
2023-01-17T05:12:33.050Z,93714.16
2023-01-17T05:15:01.410Z,93707.41
2023-01-17T05:17:31.243Z,93713.41
2023-01-17T05:19:59.563Z,93719.47
2023-01-17T05:22:27.897Z,93731.31
2023-01-17T05:24:56.160Z,93728.00
2023-01-17T05:27:24.512Z,93729.09
2023-01-17T05:29:53.308Z,93733.31
2023-01-17T05:32:21.688Z,93734.28
2023-01-17T05:34:51.683Z,93732.03
2023-01-17T05:37:20.029Z,93737.25
2023-01-17T05:39:48.335Z,93740.03
2023-01-17T05:42:16.713Z,93744.00
2023-01-17T05:44:45.024Z,93746.31
2023-01-17T05:47:13.368Z,93745.66
2023-01-17T05:49:42.034Z,93744.19
2023-01-17T05:52:12.639Z,93750.25
2023-01-17T05:54:40.970Z,93753.31
2023-01-17T05:57:09.291Z,93755.28
2023-01-17T05:59:37.783Z,93754.28
2023-01-17T06:02:06.207Z,93757.06
2023-01-17T06:04:35.025Z,93756.25
2023-01-17T06:07:03.481Z,93765.50
2023-01-17T06:09:33.183Z,93760.66
2023-01-17T06:12:01.559Z,93767.38
2023-01-17T06:14:30.026Z,93765.75
2023-01-17T06:16:58.457Z,93771.59
2023-01-17T06:19:27.154Z,93775.03
2023-01-17T06:21:55.526Z,93767.00
2023-01-17T06:24:23.880Z,93768.47
2023-01-17T06:26:53.838Z,93768.66
2023-01-17T06:29:22.152Z,93783.81
2023-01-17T06:31:50.891Z,93777.44
2023-01-17T06:34:19.319Z,93774.81
2023-01-17T06:36:47.730Z,93777.25
2023-01-17T06:39:16.080Z,93772.69
2023-01-17T06:41:44.436Z,93770.91
2023-01-17T06:44:14.422Z,93759.66
2023-01-17T06:46:43.461Z,93754.28
2023-01-17T06:49:11.852Z,93756.72
2023-01-17T06:51:42.224Z,93765.00
2023-01-17T06:54:12.343Z,93765.00
2023-01-17T06:56:41.746Z,93763.03
2023-01-17T06:59:10.105Z,93762.50
2023-01-17T07:01:39.906Z,93764.38
2023-01-17T07:04:08.330Z,93756.06
2023-01-17T07:06:37.330Z,93755.44
2023-01-17T07:09:06.022Z,93762.59
2023-01-17T07:11:34.437Z,93767.63
2023-01-17T07:14:02.883Z,93768.63
2023-01-17T07:16:31.295Z,93768.97
2023-01-17T07:19:01.069Z,93766.53
2023-01-17T07:21:29.402Z,93765.72
2023-01-17T07:23:57.713Z,93768.50
2023-01-17T07:26:26.231Z,93777.66
2023-01-17T07:28:54.535Z,93771.63
2023-01-17T07:31:22.864Z,93774.06
2023-01-17T07:33:51.279Z,93768.50
2023-01-17T07:36:20.986Z,93772.56
2023-01-17T07:38:49.383Z,93757.03
2023-01-17T07:41:17.722Z,93761.53
2023-01-17T07:43:46.042Z,93753.66
2023-01-17T07:46:15.301Z,93751.13
2023-01-17T07:48:43.709Z,93731.38
2023-01-17T07:51:12.112Z,93738.84
2023-01-17T07:53:41.827Z,93737.84
2023-01-17T07:56:10.197Z,93740.28
2023-01-17T07:58:38.648Z,93734.25
2023-01-17T08:01:09.163Z,93740.44
2023-01-17T08:03:40.011Z,93732.19
2023-01-17T08:06:17.524Z,93730.13
2023-01-17T08:08:47.283Z,93727.50
2023-01-17T08:11:15.691Z,93711.69
2023-01-17T08:13:47.065Z,93709.72
2023-01-17T08:16:15.560Z,93703.97
2023-01-17T08:18:43.931Z,93714.03
2023-01-17T08:21:15.360Z,93710.06
2023-01-17T08:23:43.886Z,93717.72
2023-01-17T08:26:21.469Z,93717.97
2023-01-17T08:28:54.963Z,93713.22
2023-01-17T08:31:23.735Z,93710.06
2023-01-17T08:33:52.222Z,93712.75
2023-01-17T08:36:20.759Z,93704.56
2023-01-17T08:38:52.704Z,93701.59
2023-01-17T08:41:23.244Z,93695.66
2023-01-17T08:43:52.899Z,93701.94
2023-01-17T08:46:21.235Z,93700.75
2023-01-17T08:48:53.761Z,93705.00
2023-01-17T08:51:22.330Z,93701.41
2023-01-17T08:53:50.792Z,93696.81
2023-01-17T08:56:19.469Z,93694.81
2023-01-17T08:58:49.138Z,93690.06
2023-01-17T09:01:17.789Z,93681.66
2023-01-17T09:03:46.271Z,93677.69
2023-01-17T09:06:16.452Z,93671.72
2023-01-17T09:08:47.081Z,93666.59
2023-01-17T09:11:17.602Z,93665.03
2023-01-17T09:13:45.990Z,93666.06
2023-01-17T09:16:15.699Z,93668.75
2023-01-17T09:18:44.089Z,93673.84
2023-01-17T09:21:13.765Z,93666.50
2023-01-17T09:23:42.893Z,93665.56
2023-01-17T09:26:18.452Z,93664.63
2023-01-17T09:28:46.795Z,93663.06
2023-01-17T09:31:17.709Z,93655.28
2023-01-17T09:33:46.370Z,93649.56
2023-01-17T09:36:15.626Z,93647.00
2023-01-17T09:38:44.634Z,93645.47
2023-01-17T09:41:23.973Z,93640.88
2023-01-17T09:43:57.713Z,93646.78
2023-01-17T09:46:32.012Z,93635.78
2023-01-17T09:49:07.370Z,93638.59
2023-01-17T09:51:37.302Z,93632.81
2023-01-17T09:54:06.056Z,93618.75
2023-01-17T09:56:38.497Z,93614.13
2023-01-17T09:59:19.878Z,93614.56
2023-01-17T10:01:58.889Z,93608.56
2023-01-17T10:04:43.752Z,93622.47
2023-01-17T10:07:29.442Z,93623.91
2023-01-17T10:10:11.039Z,93612.59
2023-01-17T10:12:51.886Z,93608.34
2023-01-17T10:15:49.350Z,93595.66
2023-01-17T10:18:34.432Z,93592.66
2023-01-17T10:21:07.128Z,93579.41
2023-01-17T10:24:04.682Z,93575.38
2023-01-17T10:26:34.894Z,93573.75
2023-01-17T10:29:06.994Z,93567.31
2023-01-17T10:31:44.488Z,93554.63
2023-01-17T10:34:20.293Z,93544.75
2023-01-17T10:36:53.711Z,93551.22
2023-01-17T10:39:24.483Z,93534.91
2023-01-17T10:41:57.968Z,93522.81
2023-01-17T10:44:33.286Z,93521.22
2023-01-17T10:47:12.013Z,93517.97
2023-01-17T10:49:47.681Z,93514.97
2023-01-17T10:52:26.747Z,93506.28
2023-01-17T10:55:04.957Z,93506.06
2023-01-17T10:57:40.579Z,93486.94
2023-01-17T11:00:26.504Z,93477.84
2023-01-17T11:02:55.971Z,93462.53
2023-01-17T11:05:29.041Z,93454.28
2023-01-17T11:08:02.837Z,93449.00
2023-01-17T11:10:37.987Z,93449.41
2023-01-17T11:13:20.759Z,93463.09
2023-01-17T11:15:51.503Z,93462.31
2023-01-17T11:18:21.921Z,93461.47
2023-01-17T11:20:52.088Z,93474.81
2023-01-17T11:23:24.026Z,93470.38
2023-01-17T11:25:55.161Z,93478.81
2023-01-17T11:28:26.609Z,93478.63
2023-01-17T11:30:57.082Z,93473.97
2023-01-17T11:33:45.407Z,93464.28
2023-01-17T11:36:20.804Z,93473.97
2023-01-17T11:38:57.285Z,93471.34
2023-01-17T11:41:28.125Z,93466.13
2023-01-17T11:43:59.069Z,93458.06
2023-01-17T11:46:29.712Z,93455.44
2023-01-17T11:48:59.969Z,93443.31
2023-01-17T11:51:32.701Z,93434.47
2023-01-17T11:54:14.807Z,93430.03
2023-01-17T11:56:48.466Z,93423.75
2023-01-17T11:59:27.363Z,93414.88
2023-01-17T12:02:16.240Z,93413.06
2023-01-17T12:04:48.634Z,93404.22
2023-01-17T12:07:29.470Z,93402.38
2023-01-17T12:10:06.429Z,93403.63
2023-01-17T12:13:04.246Z,93397.53
2023-01-17T12:15:48.201Z,93381.81
2023-01-17T12:18:34.489Z,93383.66
2023-01-17T12:21:26.424Z,93373.16
2023-01-17T12:24:17.695Z,93374.41
2023-01-17T12:26:55.733Z,93359.06
2023-01-17T12:29:45.046Z,93352.44
2023-01-17T12:32:44.918Z,93345.38
2023-01-17T12:35:17.427Z,93338.53
2023-01-17T12:38:03.763Z,93327.25
2023-01-17T12:40:40.017Z,93322.00
2023-01-17T12:43:15.534Z,93311.75
2023-01-17T12:45:45.730Z,93307.50
2023-01-17T12:48:18.451Z,93286.75
2023-01-17T12:50:53.880Z,93280.13
2023-01-17T12:53:32.696Z,93266.44
2023-01-17T12:56:09.526Z,93271.50
2023-01-17T12:58:42.653Z,93272.53
2023-01-17T13:01:25.023Z,93274.53
2023-01-17T13:04:03.482Z,93274.53
2023-01-17T13:06:37.113Z,93275.97
2023-01-17T13:09:06.785Z,93283.00
2023-01-17T13:11:44.061Z,93294.31
2023-01-17T13:14:12.488Z,93288.06
2023-01-17T13:16:45.283Z,93283.84
2023-01-17T13:19:22.585Z,93281.22
2023-01-17T13:21:51.690Z,93284.84
2023-01-17T13:24:30.096Z,93287.47
2023-01-17T13:27:17.008Z,93282.22
2023-01-17T13:29:59.434Z,93280.81
2023-01-17T13:32:49.799Z,93268.72
2023-01-17T13:35:27.700Z,93279.41
2023-01-17T13:38:10.323Z,93270.56
2023-01-17T13:40:50.122Z,93278.63
2023-01-17T13:43:25.744Z,93273.59
2023-01-17T13:45:56.315Z,93270.97
2023-01-17T13:48:31.006Z,93267.75
2023-01-17T13:51:02.195Z,93265.13
2023-01-17T13:53:58.360Z,93264.34
2023-01-17T13:56:34.626Z,93252.25
2023-01-17T13:59:06.516Z,93261.91
2023-01-17T14:01:52.696Z,93258.72
2023-01-17T14:04:25.600Z,93252.47
2023-01-17T14:07:01.185Z,93240.38
2023-01-17T14:09:39.188Z,93232.72
2023-01-17T14:12:23.498Z,93215.22
2023-01-17T14:14:56.932Z,93209.75
2023-01-17T14:17:47.708Z,93212.75
2023-01-17T14:20:48.358Z,93199.44
2023-01-17T14:23:36.479Z,93188.34
2023-01-17T14:26:49.894Z,93188.31
2023-01-17T14:29:48.708Z,93173.28
2023-01-17T14:32:21.056Z,93160.25
2023-01-17T14:34:51.340Z,93163.28
2023-01-17T14:37:34.688Z,93152.03
2023-01-17T14:40:03.125Z,93142.78
2023-01-17T14:42:34.280Z,93132.59
2023-01-17T14:45:06.689Z,93135.31
2023-01-17T14:47:39.826Z,93133.97
2023-01-17T14:50:22.205Z,93133.50
2023-01-17T14:53:15.955Z,93130.56
2023-01-17T14:55:52.736Z,93129.59
2023-01-17T14:58:23.061Z,93122.81
2023-01-17T15:00:53.637Z,93120.41
2023-01-17T15:03:23.688Z,93123.34
2023-01-17T15:05:55.895Z,93122.00
2023-01-17T15:08:30.745Z,93113.97
2023-01-17T15:11:02.959Z,93112.59
2023-01-17T15:13:43.833Z,93123.38
2023-01-17T15:16:21.213Z,93109.38
2023-01-17T15:18:51.648Z,93107.84
2023-01-17T15:21:22.346Z,93108.09
2023-01-17T15:23:54.277Z,93086.41
2023-01-17T15:26:26.469Z,93075.41
2023-01-17T15:29:03.948Z,93084.53
2023-01-17T15:31:41.819Z,93067.06
2023-01-17T15:34:23.648Z,93055.63
2023-01-17T15:36:53.025Z,93052.03
2023-01-17T15:39:24.511Z,93045.84
2023-01-17T15:41:54.461Z,93034.19
2023-01-17T15:44:46.421Z,93009.47
2023-01-17T15:47:31.082Z,93007.50
2023-01-17T15:50:02.529Z,93022.22
2023-01-17T15:52:31.126Z,93035.94
2023-01-17T15:55:12.223Z,93044.44
2023-01-17T15:57:41.284Z,93052.72
2023-01-17T16:00:21.915Z,93072.84
2023-01-17T16:02:55.408Z,93069.03
2023-01-17T16:05:44.803Z,93063.63
2023-01-17T16:08:27.563Z,93066.91
2023-01-17T16:10:59.393Z,93062.69
2023-01-17T16:13:27.721Z,93067.34
2023-01-17T16:16:10.073Z,93062.72
2023-01-17T16:18:38.763Z,93065.97
2023-01-17T16:21:18.595Z,93068.00
2023-01-17T16:23:47.228Z,93057.53
2023-01-17T16:26:16.557Z,93049.88
2023-01-17T16:28:45.767Z,93038.84
2023-01-17T16:31:14.406Z,93034.00
2023-01-17T16:33:43.483Z,93035.03
2023-01-17T16:36:16.390Z,93039.44
2023-01-17T16:38:46.603Z,93044.09
2023-01-17T16:41:14.995Z,93057.16
2023-01-17T16:43:43.335Z,93056.19
2023-01-17T16:46:13.402Z,93045.94
2023-01-17T16:48:41.834Z,93040.94
2023-01-17T16:51:10.208Z,93052.38
2023-01-17T16:53:39.936Z,93069.31
2023-01-17T16:56:13.673Z,93056.28
2023-01-17T16:58:42.475Z,93056.91
2023-01-17T17:01:16.616Z,93059.34
2023-01-17T17:03:50.472Z,93074.47
2023-01-17T17:06:19.112Z,93062.63
2023-01-17T17:08:48.967Z,93059.63
2023-01-17T17:11:19.457Z,93064.66
2023-01-17T17:13:49.981Z,93073.09
2023-01-17T17:16:20.416Z,93085.56
2023-01-17T17:18:55.837Z,93090.41
2023-01-17T17:21:24.316Z,93097.25
2023-01-17T17:23:59.015Z,93101.47
2023-01-17T17:26:30.977Z,93086.41
2023-01-17T17:28:59.857Z,93098.44
2023-01-17T17:31:28.750Z,93109.91
2023-01-17T17:33:59.693Z,93113.94
2023-01-17T17:36:28.101Z,93115.75
2023-01-17T17:38:59.037Z,93130.44
2023-01-17T17:41:28.904Z,93140.28
2023-01-17T17:43:57.983Z,93148.91
2023-01-17T17:46:27.333Z,93159.94
2023-01-17T17:48:56.479Z,93165.34
2023-01-17T17:51:26.888Z,93166.75
2023-01-17T17:54:00.812Z,93186.81
2023-01-17T17:56:30.513Z,93191.44
2023-01-17T17:59:00.017Z,93193.25
2023-01-17T18:01:29.278Z,93200.84
2023-01-17T18:04:01.630Z,93206.31
2023-01-17T18:06:30.197Z,93213.53
2023-01-17T18:08:59.977Z,93214.53
2023-01-17T18:11:29.088Z,93214.53
2023-01-17T18:14:00.412Z,93217.75
2023-01-17T18:16:32.613Z,93215.53
2023-01-17T18:19:01.336Z,93213.34
2023-01-17T18:21:32.402Z,93215.75
2023-01-17T18:24:04.208Z,93211.97
2023-01-17T18:26:34.990Z,93215.78
2023-01-17T18:29:04.928Z,93204.91
2023-01-17T18:31:34.414Z,93206.53
2023-01-17T18:34:05.876Z,93198.69
2023-01-17T18:36:35.804Z,93195.09
2023-01-17T18:39:10.950Z,93207.13
2023-01-17T18:41:39.686Z,93202.72
2023-01-17T18:44:08.962Z,93200.09
2023-01-17T18:46:38.053Z,93201.31
2023-01-17T18:49:06.555Z,93195.69
2023-01-17T18:51:35.761Z,93192.88
2023-01-17T18:54:08.939Z,93193.28
2023-01-17T18:56:37.500Z,93200.13
2023-01-17T18:59:07.092Z,93197.28
2023-01-17T19:01:36.769Z,93200.31
2023-01-17T19:04:06.596Z,93209.97
2023-01-17T19:06:36.954Z,93219.44
2023-01-17T19:09:07.667Z,93225.03
2023-01-17T19:11:37.054Z,93232.66
2023-01-17T19:14:06.413Z,93232.06
2023-01-17T19:16:39.047Z,93236.28
2023-01-17T19:19:09.623Z,93243.13
2023-01-17T19:21:38.225Z,93237.50
2023-01-17T19:24:08.831Z,93240.28
2023-01-17T19:26:38.010Z,93243.28
2023-01-17T19:29:06.942Z,93266.97
2023-01-17T19:31:42.487Z,93272.38
2023-01-17T19:34:13.731Z,93295.69
2023-01-17T19:36:42.288Z,93306.88
2023-01-17T19:39:12.203Z,93305.88
2023-01-17T19:41:43.551Z,93312.88
2023-01-17T19:44:13.851Z,93310.88
2023-01-17T19:46:43.943Z,93322.72
2023-01-17T19:49:12.323Z,93317.34
2023-01-17T19:51:40.791Z,93304.75
2023-01-17T19:54:09.296Z,93291.69
2023-01-17T19:56:38.991Z,93296.13
2023-01-17T19:59:07.363Z,93301.75
2023-01-17T20:01:36.252Z,93297.56
2023-01-17T20:04:05.329Z,93289.09
2023-01-17T20:06:35.438Z,93287.75
2023-01-17T20:09:05.016Z,93295.75
2023-01-17T20:11:33.367Z,93298.00
2023-01-17T20:14:05.485Z,93286.13
2023-01-17T20:16:36.324Z,93289.53
2023-01-17T20:19:04.863Z,93301.81
2023-01-17T20:21:34.383Z,93294.78
2023-01-17T20:24:04.262Z,93287.13
2023-01-17T20:26:38.045Z,93299.41
2023-01-17T20:29:10.620Z,93307.03
2023-01-17T20:31:40.581Z,93312.25
2023-01-17T20:34:10.794Z,93304.22
2023-01-17T20:36:40.299Z,93311.25
2023-01-17T20:39:11.025Z,93305.81
2023-01-17T20:41:41.334Z,93312.06
2023-01-17T20:44:14.768Z,93320.28
2023-01-17T20:46:43.402Z,93330.13
2023-01-17T20:49:14.807Z,93338.78
2023-01-17T20:51:44.303Z,93339.94
2023-01-17T20:54:15.485Z,93344.75
2023-01-17T20:56:46.693Z,93351.00
2023-01-17T20:59:18.078Z,93359.22
2023-01-17T21:01:46.932Z,93348.16
2023-01-17T21:04:15.626Z,93349.34
2023-01-17T21:06:45.034Z,93349.94
2023-01-17T21:09:17.042Z,93361.16
2023-01-17T21:11:45.453Z,93367.16
2023-01-17T21:14:14.081Z,93368.56
2023-01-17T21:16:44.621Z,93367.59
2023-01-17T21:19:15.624Z,93356.72
2023-01-17T21:21:43.963Z,93362.78
2023-01-17T21:24:16.349Z,93368.44
2023-01-17T21:26:45.825Z,93365.16
2023-01-17T21:29:16.039Z,93366.38
2023-01-17T21:31:45.964Z,93364.97
2023-01-17T21:34:14.733Z,93359.94
2023-01-17T21:36:44.210Z,93368.81
2023-01-17T21:39:15.693Z,93373.06
2023-01-17T21:41:47.823Z,93369.41
2023-01-17T21:44:20.343Z,93364.19
2023-01-17T21:46:54.348Z,93365.03
2023-01-17T21:49:24.843Z,93360.78
2023-01-17T21:52:10.707Z,93368.44
2023-01-17T21:54:57.029Z,93375.28
2023-01-17T21:57:42.937Z,93370.88
2023-01-17T22:00:15.477Z,93370.06
2023-01-17T22:02:45.473Z,93371.84
2023-01-17T22:05:14.938Z,93374.28
2023-01-17T22:08:04.608Z,93370.88
2023-01-17T22:10:44.370Z,93365.81
2023-01-17T22:13:14.295Z,93381.69
2023-01-17T22:15:43.157Z,93368.81
2023-01-17T22:18:14.545Z,93379.84
2023-01-17T22:20:43.790Z,93369.00
2023-01-17T22:23:12.554Z,93376.81
2023-01-17T22:25:40.942Z,93370.00
2023-01-17T22:28:09.301Z,93373.00
2023-01-17T22:30:38.057Z,93378.59
2023-01-17T22:33:08.878Z,93375.38
2023-01-17T22:35:38.640Z,93382.41
2023-01-17T22:38:06.942Z,93383.59
2023-01-17T22:40:38.217Z,93389.81
2023-01-17T22:43:06.624Z,93382.81
2023-01-17T22:45:34.942Z,93384.59
2023-01-17T22:48:03.446Z,93385.19
2023-01-17T22:50:31.745Z,93394.47
2023-01-17T22:53:02.662Z,93386.44
2023-01-17T22:55:31.556Z,93383.19
2023-01-17T22:57:59.881Z,93390.03
2023-01-17T23:00:28.186Z,93389.25
2023-01-17T23:02:56.749Z,93386.81
2023-01-17T23:05:25.379Z,93396.66
2023-01-17T23:07:53.885Z,93392.81
2023-01-17T23:10:41.280Z,93397.44
2023-01-17T23:13:10.779Z,93389.59
2023-01-17T23:15:57.371Z,93399.22
2023-01-17T23:18:43.278Z,93396.41
2023-01-17T23:21:11.638Z,93388.41
2023-01-17T23:23:39.964Z,93390.22
2023-01-17T23:26:09.785Z,93386.59
2023-01-17T23:28:37.151Z,93393.63
2023-01-17T23:31:06.407Z,93391.19
2023-01-17T23:33:34.888Z,93394.59
2023-01-17T23:36:03.250Z,93389.19
2023-01-17T23:38:33.817Z,93396.03
2023-01-17T23:41:22.566Z,93398.66
2023-01-17T23:43:53.403Z,93400.88
2023-01-17T23:46:22.450Z,93404.09
2023-01-17T23:48:50.945Z,93397.09
2023-01-17T23:51:19.642Z,93396.06
2023-01-17T23:53:47.959Z,93395.88
2023-01-17T23:56:19.426Z,93395.28
2023-01-17T23:58:48.009Z,93385.63
